TimeMDT,TemperatureF,Dew PointF,Humidity,Sea Level PressureIn,VisibilityMPH,Wind Direction,Wind SpeedMPH,Gust SpeedMPH,PrecipitationIn,Events,Conditions,WindDirDegrees,DateUTC
12:53 AM,55.9,53.1,90,30.03,10.0,WNW,3.5,-,N/A,,Clear,300,2013-08-17 06:53:00
1:53 AM,55.9,53.1,90,30.01,10.0,WNW,3.5,-,N/A,,Clear,290,2013-08-17 07:53:00
2:53 AM,57.0,52.0,83,30.00,10.0,WNW,4.6,-,N/A,,Clear,290,2013-08-17 08:53:00
3:53 AM,57.9,51.1,78,29.98,10.0,WNW,4.6,-,N/A,,Clear,300,2013-08-17 09:53:00
4:53 AM,60.1,50.0,69,29.97,10.0,WNW,5.8,-,N/A,,Clear,300,2013-08-17 10:53:00
5:53 AM,57.0,48.0,72,29.98,10.0,NNW,4.6,-,N/A,,Clear,330,2013-08-17 11:53:00
6:53 AM,57.9,46.0,65,29.99,10.0,NW,3.5,-,N/A,,Clear,320,2013-08-17 12:53:00
7:53 AM,62.1,52.0,70,29.99,10.0,NNW,4.6,-,N/A,,Clear,340,2013-08-17 13:53:00
8:53 AM,75.0,50.0,41,29.97,10.0,Calm,Calm,-,N/A,,Clear,0,2013-08-17 14:53:00
9:53 AM,82.0,43.0,25,29.96,10.0,Calm,Calm,-,N/A,,Clear,0,2013-08-17 15:53:00
10:53 AM,84.0,26.1,12,29.95,10.0,Calm,Calm,-,N/A,,Clear,0,2013-08-17 16:53:00
11:53 AM,84.0,46.0,26,29.96,10.0,Variable,5.8,-,N/A,,Clear,0,2013-08-17 17:53:00
12:53 PM,84.0,44.1,25,29.94,10.0,Variable,5.8,-,N/A,,Clear,0,2013-08-17 18:53:00
1:53 PM,84.9,46.0,26,29.93,10.0,Variable,3.5,-,N/A,,Clear,0,2013-08-17 19:53:00
2:53 PM,84.0,46.9,27,29.92,10.0,South,8.1,-,N/A,,Clear,190,2013-08-17 20:53:00
3:53 PM,84.0,48.0,28,29.91,10.0,South,6.9,-,N/A,,Clear,170,2013-08-17 21:53:00
4:53 PM,82.9,50.0,32,29.90,10.0,SSE,5.8,-,N/A,,Clear,160,2013-08-17 22:53:00
5:53 PM,80.1,55.0,42,29.92,10.0,ESE,6.9,-,N/A,,Clear,120,2013-08-17 23:53:00
6:53 PM,77.0,57.9,52,29.92,10.0,SE,6.9,-,N/A,,Clear,140,2013-08-18 00:53:00
7:53 PM,73.9,57.9,57,29.93,10.0,Calm,Calm,-,N/A,,Clear,0,2013-08-18 01:53:00
8:53 PM,69.1,57.0,65,29.93,10.0,Calm,Calm,-,N/A,,Clear,0,2013-08-18 02:53:00
9:53 PM,66.0,57.0,73,29.93,10.0,Calm,Calm,-,N/A,,Clear,0,2013-08-18 03:53:00
10:53 PM,62.1,57.0,84,29.94,10.0,Calm,Calm,-,N/A,,Clear,0,2013-08-18 04:53:00
11:53 PM,60.1,55.9,86,29.94,10.0,WNW,3.5,-,N/A,,Clear,290,2013-08-18 05:53:00